sensor_id;sensor_type;location;lat;lon;timestamp;pressure;altitude;pressure_sealevel;temperature;humidity
46836;BME280;32573;51.290;6.926;2023-03-12T00:01:26;99811.53;;;2.14;100.00
46836;BME280;32573;51.290;6.926;2023-03-12T00:03:56;99811.53;;;2.14;100.00
46836;BME280;32573;51.290;6.926;2023-03-12T00:06:28;99809.13;;;2.17;100.00
46836;BME280;32573;51.290;6.926;2023-03-12T00:08:58;99811.78;;;2.19;100.00
46836;BME280;32573;51.290;6.926;2023-03-12T00:11:31;99806.72;;;2.20;100.00
46836;BME280;32573;51.290;6.926;2023-03-12T00:14:00;99809.38;;;2.22;100.00
46836;BME280;32573;51.290;6.926;2023-03-12T00:16:29;99806.00;;;2.23;100.00
46836;BME280;32573;51.290;6.926;2023-03-12T00:18:58;99807.00;;;2.25;100.00
46836;BME280;32573;51.290;6.926;2023-03-12T00:21:29;99800.13;;;2.25;100.00
46836;BME280;32573;51.290;6.926;2023-03-12T00:23:59;99808.91;;;2.29;100.00
46836;BME280;32573;51.290;6.926;2023-03-12T00:26:28;99808.13;;;2.30;100.00
46836;BME280;32573;51.290;6.926;2023-03-12T00:28:57;99799.66;;;2.32;100.00
46836;BME280;32573;51.290;6.926;2023-03-12T00:31:28;99790.22;;;2.33;100.00
46836;BME280;32573;51.290;6.926;2023-03-12T00:33:58;99797.25;;;2.35;100.00
46836;BME280;32573;51.290;6.926;2023-03-12T00:36:31;99793.06;;;2.37;100.00
46836;BME280;32573;51.290;6.926;2023-03-12T00:39:01;99790.47;;;2.37;100.00
46836;BME280;32573;51.290;6.926;2023-03-12T00:41:30;99784.59;;;2.40;100.00
46836;BME280;32573;51.290;6.926;2023-03-12T00:43:59;99782.06;;;2.42;100.00
46836;BME280;32573;51.290;6.926;2023-03-12T00:46:28;99788.19;;;2.44;100.00
46836;BME280;32573;51.290;6.926;2023-03-12T00:48:56;99781.34;;;2.44;100.00
46836;BME280;32573;51.290;6.926;2023-03-12T00:51:25;99773.69;;;2.46;100.00
46836;BME280;32573;51.290;6.926;2023-03-12T00:53:55;99768.53;;;2.46;100.00
46836;BME280;32573;51.290;6.926;2023-03-12T00:56:24;99766.09;;;2.49;100.00
46836;BME280;32573;51.290;6.926;2023-03-12T00:58:52;99764.38;;;2.49;100.00
46836;BME280;32573;51.290;6.926;2023-03-12T01:01:21;99753.28;;;2.50;100.00
46836;BME280;32573;51.290;6.926;2023-03-12T01:03:50;99765.47;;;2.53;100.00
46836;BME280;32573;51.290;6.926;2023-03-12T01:06:19;99752.53;;;2.53;100.00
46836;BME280;32573;51.290;6.926;2023-03-12T01:08:47;99746.56;;;2.54;100.00
46836;BME280;32573;51.290;6.926;2023-03-12T01:11:19;99758.69;;;2.55;100.00
46836;BME280;32573;51.290;6.926;2023-03-12T01:13:48;99749.25;;;2.55;100.00
46836;BME280;32573;51.290;6.926;2023-03-12T01:16:17;99743.34;;;2.58;100.00
46836;BME280;32573;51.290;6.926;2023-03-12T01:18:45;99751.97;;;2.58;100.00
46836;BME280;32573;51.290;6.926;2023-03-12T01:21:14;99741.53;;;2.57;100.00
46836;BME280;32573;51.290;6.926;2023-03-12T01:23:43;99750.28;;;2.59;100.00
46836;BME280;32573;51.290;6.926;2023-03-12T01:26:11;99736.56;;;2.60;100.00
46836;BME280;32573;51.290;6.926;2023-03-12T01:28:42;99731.41;;;2.60;100.00
46836;BME280;32573;51.290;6.926;2023-03-12T01:31:13;99728.88;;;2.62;100.00
46836;BME280;32573;51.290;6.926;2023-03-12T01:33:42;99735.03;;;2.64;100.00
46836;BME280;32573;51.290;6.926;2023-03-12T01:36:17;99729.78;;;2.62;100.00
46836;BME280;32573;51.290;6.926;2023-03-12T01:42:16;99722.19;;;2.65;100.00
46836;BME280;32573;51.290;6.926;2023-03-12T01:44:50;99728.34;;;2.67;100.00
46836;BME280;32573;51.290;6.926;2023-03-12T01:47:20;99726.69;;;2.69;100.00
46836;BME280;32573;51.290;6.926;2023-03-12T01:49:51;99725.91;;;2.70;100.00
46836;BME280;32573;51.290;6.926;2023-03-12T01:52:22;99710.47;;;2.72;100.00
46836;BME280;32573;51.290;6.926;2023-03-12T01:54:57;99713.13;;;2.73;100.00
46836;BME280;32573;51.290;6.926;2023-03-12T01:57:30;99707.97;;;2.73;100.00
46836;BME280;32573;51.290;6.926;2023-03-12T02:00:08;99701.03;;;2.72;100.00
46836;BME280;32573;51.290;6.926;2023-03-12T02:02:42;99705.28;;;2.72;100.00
46836;BME280;32573;51.290;6.926;2023-03-12T02:05:20;99711.38;;;2.72;100.00
46836;BME280;32573;51.290;6.926;2023-03-12T02:07:51;99716.53;;;2.72;100.00
46836;BME280;32573;51.290;6.926;2023-03-12T02:10:21;99715.63;;;2.72;100.00
46836;BME280;32573;51.290;6.926;2023-03-12T02:12:50;99707.88;;;2.72;100.00
46836;BME280;32573;51.290;6.926;2023-03-12T02:15:20;99698.47;;;2.72;100.00
46836;BME280;32573;51.290;6.926;2023-03-12T02:17:49;99695.88;;;2.72;100.00
46836;BME280;32573;51.290;6.926;2023-03-12T02:20:24;99688.91;;;2.71;100.00
46836;BME280;32573;51.290;6.926;2023-03-12T02:22:59;99688.91;;;2.71;100.00
46836;BME280;32573;51.290;6.926;2023-03-12T02:25:35;99688.91;;;2.71;100.00
46836;BME280;32573;51.290;6.926;2023-03-12T02:28:08;99678.56;;;2.71;100.00
46836;BME280;32573;51.290;6.926;2023-03-12T02:30:38;99676.81;;;2.70;100.00
46836;BME280;32573;51.290;6.926;2023-03-12T02:33:09;99676.81;;;2.70;100.00
46836;BME280;32573;51.290;6.926;2023-03-12T02:35:39;99680.19;;;2.69;100.00
46836;BME280;32573;51.290;6.926;2023-03-12T02:38:30;99672.44;;;2.69;100.00
46836;BME280;32573;51.290;6.926;2023-03-12T02:41:03;99687.94;;;2.69;100.00
46836;BME280;32573;51.290;6.926;2023-03-12T02:43:33;99692.31;;;2.70;100.00
46836;BME280;32573;51.290;6.926;2023-03-12T02:46:02;99690.53;;;2.69;100.00
46836;BME280;32573;51.290;6.926;2023-03-12T02:48:31;99694.06;;;2.71;100.00
46836;BME280;32573;51.290;6.926;2023-03-12T02:51:00;99683.75;;;2.71;100.00
46836;BME280;32573;51.290;6.926;2023-03-12T02:53:29;99685.53;;;2.72;100.00
46836;BME280;32573;51.290;6.926;2023-03-12T02:55:58;99682.13;;;2.73;100.00
46836;BME280;32573;51.290;6.926;2023-03-12T02:58:29;99687.31;;;2.73;100.00
46836;BME280;32573;51.290;6.926;2023-03-12T03:00:58;99663.22;;;2.74;100.00
46836;BME280;32573;51.290;6.926;2023-03-12T03:03:27;99661.56;;;2.75;100.00
46836;BME280;32573;51.290;6.926;2023-03-12T03:05:55;99647.72;;;2.74;100.00
46836;BME280;32573;51.290;6.926;2023-03-12T03:08:29;99647.72;;;2.74;100.00
46836;BME280;32573;51.290;6.926;2023-03-12T03:11:00;99656.38;;;2.75;100.00
46836;BME280;32573;51.290;6.926;2023-03-12T03:13:41;99658.97;;;2.75;100.00
46836;BME280;32573;51.290;6.926;2023-03-12T03:16:24;99648.53;;;2.73;100.00
46836;BME280;32573;51.290;6.926;2023-03-12T03:18:53;99643.53;;;2.76;100.00
46836;BME280;32573;51.290;6.926;2023-03-12T03:21:27;99641.75;;;2.75;100.00
46836;BME280;32573;51.290;6.926;2023-03-12T03:23:56;99639.19;;;2.75;100.00
46836;BME280;32573;51.290;6.926;2023-03-12T03:26:34;99646.09;;;2.76;100.00
46836;BME280;32573;51.290;6.926;2023-03-12T03:29:04;99631.47;;;2.77;100.00
46836;BME280;32573;51.290;6.926;2023-03-12T03:31:33;99638.44;;;2.78;100.00
46836;BME280;32573;51.290;6.926;2023-03-12T03:34:03;99625.53;;;2.78;100.00
46836;BME280;32573;51.290;6.926;2023-03-12T03:36:41;99630.75;;;2.79;100.00
46836;BME280;32573;51.290;6.926;2023-03-12T03:39:16;99629.88;;;2.79;100.00
46836;BME280;32573;51.290;6.926;2023-03-12T03:41:45;99635.91;;;2.79;100.00
46836;BME280;32573;51.290;6.926;2023-03-12T03:44:18;99632.53;;;2.80;100.00
46836;BME280;32573;51.290;6.926;2023-03-12T03:46:51;99636.09;;;2.83;100.00
46836;BME280;32573;51.290;6.926;2023-03-12T03:49:22;99631.72;;;2.81;100.00
46836;BME280;32573;51.290;6.926;2023-03-12T03:51:51;99629.22;;;2.83;100.00
46836;BME280;32573;51.290;6.926;2023-03-12T03:54:27;99637.84;;;2.84;100.00
46836;BME280;32573;51.290;6.926;2023-03-12T03:56:58;99631.06;;;2.86;100.00
46836;BME280;32573;51.290;6.926;2023-03-12T03:59:35;99634.47;;;2.85;100.00
46836;BME280;32573;51.290;6.926;2023-03-12T04:02:06;99628.56;;;2.87;100.00
46836;BME280;32573;51.290;6.926;2023-03-12T04:04:39;99631.16;;;2.87;100.00
46836;BME280;32573;51.290;6.926;2023-03-12T04:07:09;99632.03;;;2.88;100.00
46836;BME280;32573;51.290;6.926;2023-03-12T04:09:46;99633.81;;;2.89;100.00
46836;BME280;32573;51.290;6.926;2023-03-12T04:12:19;99622.66;;;2.90;100.00
46836;BME280;32573;51.290;6.926;2023-03-12T04:14:49;99625.31;;;2.91;100.00
46836;BME280;32573;51.290;6.926;2023-03-12T04:17:18;99619.25;;;2.91;100.00
46836;BME280;32573;51.290;6.926;2023-03-12T04:19:50;99636.72;;;2.95;100.00
46836;BME280;32573;51.290;6.926;2023-03-12T04:22:29;99625.53;;;2.96;100.00
46836;BME280;32573;51.290;6.926;2023-03-12T04:24:59;99621.34;;;2.98;100.00
46836;BME280;32573;51.290;6.926;2023-03-12T04:27:28;99616.16;;;2.98;100.00
46836;BME280;32573;51.290;6.926;2023-03-12T04:29:58;99618.75;;;2.98;100.00
46836;BME280;32573;51.290;6.926;2023-03-12T04:32:33;99612.75;;;2.99;100.00
46836;BME280;32573;51.290;6.926;2023-03-12T04:35:08;99609.38;;;3.00;100.00
46836;BME280;32573;51.290;6.926;2023-03-12T04:37:38;99601.69;;;3.01;100.00
46836;BME280;32573;51.290;6.926;2023-03-12T04:40:09;99609.53;;;3.03;100.00
46836;BME280;32573;51.290;6.926;2023-03-12T04:42:43;99600.06;;;3.03;100.00
46836;BME280;32573;51.290;6.926;2023-03-12T04:45:15;99596.69;;;3.05;100.00
46836;BME280;32573;51.290;6.926;2023-03-12T04:47:45;99603.63;;;3.06;100.00
46836;BME280;32573;51.290;6.926;2023-03-12T04:50:15;99616.63;;;3.07;100.00
46836;BME280;32573;51.290;6.926;2023-03-12T04:52:44;99606.28;;;3.07;100.00
46836;BME280;32573;51.290;6.926;2023-03-12T04:55:13;99596.84;;;3.08;100.00
46836;BME280;32573;51.290;6.926;2023-03-12T04:57:42;99606.28;;;3.07;100.00
46836;BME280;32573;51.290;6.926;2023-03-12T05:00:12;99602.00;;;3.08;100.00
46836;BME280;32573;51.290;6.926;2023-03-12T05:02:44;99595.22;;;3.10;100.00
46836;BME280;32573;51.290;6.926;2023-03-12T05:05:16;99591.72;;;3.09;100.00
46836;BME280;32573;51.290;6.926;2023-03-12T05:07:45;99586.53;;;3.09;100.00
46836;BME280;32573;51.290;6.926;2023-03-12T05:10:19;99577.91;;;3.09;100.00
46836;BME280;32573;51.290;6.926;2023-03-12T05:12:50;99568.44;;;3.09;100.00
46836;BME280;32573;51.290;6.926;2023-03-12T05:15:19;99562.47;;;3.10;100.00
46836;BME280;32573;51.290;6.926;2023-03-12T05:17:49;99560.78;;;3.11;100.00
46836;BME280;32573;51.290;6.926;2023-03-12T05:20:21;99564.25;;;3.11;100.00
46836;BME280;32573;51.290;6.926;2023-03-12T05:22:49;99572.81;;;3.10;100.00
46836;BME280;32573;51.290;6.926;2023-03-12T05:25:18;99561.66;;;3.11;100.00
46836;BME280;32573;51.290;6.926;2023-03-12T05:27:48;99552.94;;;3.09;100.00
46836;BME280;32573;51.290;6.926;2023-03-12T05:30:17;99552.88;;;3.08;100.00
46836;BME280;32573;51.290;6.926;2023-03-12T05:32:46;99544.25;;;3.07;100.00
46836;BME280;32573;51.290;6.926;2023-03-12T05:35:17;99544.25;;;3.07;100.00
46836;BME280;32573;51.290;6.926;2023-03-12T05:37:46;99538.13;;;3.05;100.00
46836;BME280;32573;51.290;6.926;2023-03-12T05:40:15;99550.16;;;3.05;100.00
46836;BME280;32573;51.290;6.926;2023-03-12T05:42:43;99519.06;;;3.03;100.00
46836;BME280;32573;51.290;6.926;2023-03-12T05:45:12;99520.75;;;3.02;100.00
46836;BME280;32573;51.290;6.926;2023-03-12T05:47:46;99525.03;;;3.02;100.00
46836;BME280;32573;51.290;6.926;2023-03-12T05:50:15;99533.59;;;3.01;100.00
46836;BME280;32573;51.290;6.926;2023-03-12T05:52:45;99525.84;;;3.01;100.00
46836;BME280;32573;51.290;6.926;2023-03-12T05:55:14;99523.25;;;3.01;100.00
46836;BME280;32573;51.290;6.926;2023-03-12T05:57:46;99518.97;;;3.01;100.00
46836;BME280;32573;51.290;6.926;2023-03-12T06:00:16;99518.09;;;3.01;100.00
46836;BME280;32573;51.290;6.926;2023-03-12T06:02:53;99498.25;;;3.00;100.00
46836;BME280;32573;51.290;6.926;2023-03-12T06:05:30;99492.25;;;3.01;100.00
46836;BME280;32573;51.290;6.926;2023-03-12T06:08:00;99492.25;;;3.01;100.00
46836;BME280;32573;51.290;6.926;2023-03-12T06:10:29;99493.13;;;3.01;100.00
46836;BME280;32573;51.290;6.926;2023-03-12T06:12:58;99481.91;;;3.01;100.00
46836;BME280;32573;51.290;6.926;2023-03-12T06:15:27;99468.91;;;2.99;100.00
46836;BME280;32573;51.290;6.926;2023-03-12T06:18:04;99471.44;;;2.98;100.00
46836;BME280;32573;51.290;6.926;2023-03-12T06:20:34;99482.66;;;2.98;100.00
46836;BME280;32573;51.290;6.926;2023-03-12T06:23:04;99482.56;;;2.97;100.00
46836;BME280;32573;51.290;6.926;2023-03-12T06:25:33;99485.16;;;2.97;100.00
46836;BME280;32573;51.290;6.926;2023-03-12T06:28:02;99485.16;;;2.97;100.00
46836;BME280;32573;51.290;6.926;2023-03-12T06:30:30;99482.56;;;2.97;100.00
46836;BME280;32573;51.290;6.926;2023-03-12T06:32:59;99481.78;;;2.98;100.00
46836;BME280;32573;51.290;6.926;2023-03-12T06:35:27;99482.56;;;2.97;100.00
46836;BME280;32573;51.290;6.926;2023-03-12T06:37:56;99487.75;;;2.97;100.00
46836;BME280;32573;51.290;6.926;2023-03-12T06:40:26;99500.66;;;2.97;100.00
46836;BME280;32573;51.290;6.926;2023-03-12T06:42:54;99504.06;;;2.96;100.00
46836;BME280;32573;51.290;6.926;2023-03-12T06:45:23;99500.66;;;2.97;100.00
46836;BME280;32573;51.290;6.926;2023-03-12T06:47:51;99494.59;;;2.96;100.00
46836;BME280;32573;51.290;6.926;2023-03-12T06:50:20;99487.75;;;2.97;100.00
46836;BME280;32573;51.290;6.926;2023-03-12T06:52:49;99482.56;;;2.97;100.00
46836;BME280;32573;51.290;6.926;2023-03-12T06:55:17;99481.63;;;2.95;100.00
46836;BME280;32573;51.290;6.926;2023-03-12T06:57:47;99490.28;;;2.95;100.00
46836;BME280;32573;51.290;6.926;2023-03-12T07:00:21;99497.16;;;2.95;100.00
46836;BME280;32573;51.290;6.926;2023-03-12T07:02:50;99487.59;;;2.94;100.00
46836;BME280;32573;51.290;6.926;2023-03-12T07:05:18;99490.28;;;2.95;100.00
46836;BME280;32573;51.290;6.926;2023-03-12T07:07:48;99483.41;;;2.96;100.00
46836;BME280;32573;51.290;6.926;2023-03-12T07:10:17;99480.81;;;2.96;100.00
46836;BME280;32573;51.290;6.926;2023-03-12T07:12:47;99481.78;;;2.98;100.00
46836;BME280;32573;51.290;6.926;2023-03-12T07:15:15;99476.59;;;2.98;100.00
46836;BME280;32573;51.290;6.926;2023-03-12T07:17:44;99478.34;;;2.99;100.00
46836;BME280;32573;51.290;6.926;2023-03-12T07:20:13;99481.03;;;3.00;100.00
46836;BME280;32573;51.290;6.926;2023-03-12T07:22:41;99463.81;;;3.01;100.00
46836;BME280;32573;51.290;6.926;2023-03-12T07:25:10;99470.03;;;3.05;100.00
46836;BME280;32573;51.290;6.926;2023-03-12T07:27:38;99468.31;;;3.05;100.00
46836;BME280;32573;51.290;6.926;2023-03-12T07:30:10;99463.22;;;3.07;100.00
46836;BME280;32573;51.290;6.926;2023-03-12T07:32:39;99472.81;;;3.09;100.00
46836;BME280;32573;51.290;6.926;2023-03-12T07:35:08;99473.75;;;3.11;100.00
46836;BME280;32573;51.290;6.926;2023-03-12T07:37:37;99471.25;;;3.13;100.00
46836;BME280;32573;51.290;6.926;2023-03-12T07:40:07;99473.91;;;3.14;100.00
46836;BME280;32573;51.290;6.926;2023-03-12T07:42:36;99473.09;;;3.15;100.00
46836;BME280;32573;51.290;6.926;2023-03-12T07:45:06;99480.03;;;3.16;100.00
46836;BME280;32573;51.290;6.926;2023-03-12T07:47:36;99470.66;;;3.18;100.00
46836;BME280;32573;51.290;6.926;2023-03-12T07:50:06;99469.81;;;3.19;100.00
46836;BME280;32573;51.290;6.926;2023-03-12T07:52:34;99469.03;;;3.20;100.00
46836;BME280;32573;51.290;6.926;2023-03-12T07:55:04;99474.25;;;3.22;100.00
46836;BME280;32573;51.290;6.926;2023-03-12T07:57:33;99467.41;;;3.22;100.00
46836;BME280;32573;51.290;6.926;2023-03-12T08:00:03;99469.16;;;3.23;100.00
46836;BME280;32573;51.290;6.926;2023-03-12T08:02:39;99458.06;;;3.26;100.00
46836;BME280;32573;51.290;6.926;2023-03-12T08:05:09;99467.63;;;3.27;100.00
46836;BME280;32573;51.290;6.926;2023-03-12T08:07:38;99465.06;;;3.29;100.00
46836;BME280;32573;51.290;6.926;2023-03-12T08:10:08;99471.22;;;3.31;100.00
46836;BME280;32573;51.290;6.926;2023-03-12T08:12:37;99468.84;;;3.35;100.00
46836;BME280;32573;51.290;6.926;2023-03-12T08:15:06;99468.00;;;3.36;100.00
46836;BME280;32573;51.290;6.926;2023-03-12T08:17:35;99474.13;;;3.38;100.00
46836;BME280;32573;51.290;6.926;2023-03-12T08:20:07;99469.84;;;3.39;100.00
46836;BME280;32573;51.290;6.926;2023-03-12T08:22:37;99480.31;;;3.42;100.00
46836;BME280;32573;51.290;6.926;2023-03-12T08:25:06;99481.22;;;3.42;100.00
46836;BME280;32573;51.290;6.926;2023-03-12T08:27:35;99468.34;;;3.44;100.00
46836;BME280;32573;51.290;6.926;2023-03-12T08:30:04;99475.31;;;3.45;100.00
46836;BME280;32573;51.290;6.926;2023-03-12T08:32:33;99471.88;;;3.46;100.00
46836;BME280;32573;51.290;6.926;2023-03-12T08:35:03;99469.50;;;3.51;100.00
46836;BME280;32573;51.290;6.926;2023-03-12T08:37:33;99465.34;;;3.54;100.00
46836;BME280;32573;51.290;6.926;2023-03-12T08:40:02;99461.22;;;3.58;100.00
46836;BME280;32573;51.290;6.926;2023-03-12T08:42:39;99454.44;;;3.61;100.00
46836;BME280;32573;51.290;6.926;2023-03-12T08:45:09;99455.53;;;3.66;100.00
46836;BME280;32573;51.290;6.926;2023-03-12T08:47:38;99458.34;;;3.71;100.00
46836;BME280;32573;51.290;6.926;2023-03-12T08:50:09;99465.41;;;3.75;100.00
46836;BME280;32573;51.290;6.926;2023-03-12T08:52:40;99462.13;;;3.79;100.00
46836;BME280;32573;51.290;6.926;2023-03-12T08:55:09;99454.44;;;3.81;100.00
46836;BME280;32573;51.290;6.926;2023-03-12T08:57:38;99449.38;;;3.84;100.00
46836;BME280;32573;51.290;6.926;2023-03-12T09:00:07;99450.34;;;3.86;100.00
46836;BME280;32573;51.290;6.926;2023-03-12T09:02:43;99450.41;;;3.87;100.00
46836;BME280;32573;51.290;6.926;2023-03-12T09:05:12;99447.06;;;3.90;100.00
46836;BME280;32573;51.290;6.926;2023-03-12T09:07:42;99454.97;;;3.93;100.00
46836;BME280;32573;51.290;6.926;2023-03-12T09:10:11;99456.81;;;3.96;100.00
46836;BME280;32573;51.290;6.926;2023-03-12T09:12:39;99462.94;;;3.98;100.00
46836;BME280;32573;51.290;6.926;2023-03-12T09:15:08;99461.22;;;3.98;100.00
46836;BME280;32573;51.290;6.926;2023-03-12T09:17:37;99466.41;;;3.98;100.00
46836;BME280;32573;51.290;6.926;2023-03-12T09:20:08;99465.56;;;3.99;100.00
46836;BME280;32573;51.290;6.926;2023-03-12T09:22:40;99450.03;;;3.99;100.00
46836;BME280;32573;51.290;6.926;2023-03-12T09:25:11;99462.19;;;4.00;100.00
46836;BME280;32573;51.290;6.926;2023-03-12T09:27:41;99453.56;;;4.01;100.00
46836;BME280;32573;51.290;6.926;2023-03-12T09:30:13;99453.56;;;4.01;100.00
46836;BME280;32573;51.290;6.926;2023-03-12T09:32:42;99447.59;;;4.02;100.00
46836;BME280;32573;51.290;6.926;2023-03-12T09:35:13;99450.19;;;4.02;100.00
46836;BME280;32573;51.290;6.926;2023-03-12T09:37:42;99474.38;;;4.03;100.00
46836;BME280;32573;51.290;6.926;2023-03-12T09:40:15;99470.81;;;4.01;100.00
46836;BME280;32573;51.290;6.926;2023-03-12T09:42:47;99462.19;;;4.00;100.00
46836;BME280;32573;51.290;6.926;2023-03-12T09:45:21;99461.34;;;4.01;100.00
46836;BME280;32573;51.290;6.926;2023-03-12T09:47:52;99470.91;;;4.02;100.00
46836;BME280;32573;51.290;6.926;2023-03-12T09:50:24;99477.84;;;4.03;100.00
46836;BME280;32573;51.290;6.926;2023-03-12T09:52:57;99469.28;;;4.04;100.00
46836;BME280;32573;51.290;6.926;2023-03-12T09:55:33;99476.19;;;4.05;100.00
46836;BME280;32573;51.290;6.926;2023-03-12T09:58:03;99481.47;;;4.07;100.00
46836;BME280;32573;51.290;6.926;2023-03-12T10:00:33;99480.63;;;4.08;100.00
46836;BME280;32573;51.290;6.926;2023-03-12T10:03:18;99483.28;;;4.09;100.00
46836;BME280;32573;51.290;6.926;2023-03-12T10:06:00;99481.63;;;4.11;100.00
46836;BME280;32573;51.290;6.926;2023-03-12T10:08:42;99489.47;;;4.13;100.00
46836;BME280;32573;51.290;6.926;2023-03-12T10:11:25;99489.66;;;4.18;100.00
46836;BME280;32573;51.290;6.926;2023-03-12T10:14:06;99489.72;;;4.19;100.00
46836;BME280;32573;51.290;6.926;2023-03-12T10:17:01;99485.56;;;4.23;100.00
46836;BME280;32573;51.290;6.926;2023-03-12T10:19:51;99487.31;;;4.24;100.00
46836;BME280;32573;51.290;6.926;2023-03-12T10:22:43;99478.88;;;4.28;100.00
46836;BME280;32573;51.290;6.926;2023-03-12T10:25:20;99484.28;;;4.34;100.00
46836;BME280;32573;51.290;6.926;2023-03-12T10:27:51;99468.00;;;4.37;100.00
46836;BME280;32573;51.290;6.926;2023-03-12T10:30:21;99477.75;;;4.42;100.00
46836;BME280;32573;51.290;6.926;2023-03-12T10:32:54;99487.34;;;4.45;100.00
46836;BME280;32573;51.290;6.926;2023-03-12T10:35:24;99478.84;;;4.49;100.00
46836;BME280;32573;51.290;6.926;2023-03-12T10:37:55;99482.47;;;4.52;100.00
46836;BME280;32573;51.290;6.926;2023-03-12T10:40:27;99486.94;;;4.57;100.00
46836;BME280;32573;51.290;6.926;2023-03-12T10:42:57;99488.84;;;4.61;100.00
46836;BME280;32573;51.290;6.926;2023-03-12T10:45:30;99483.78;;;4.64;100.00
46836;BME280;32573;51.290;6.926;2023-03-12T10:48:03;99495.16;;;4.67;100.00
46836;BME280;32573;51.290;6.926;2023-03-12T10:50:35;99494.41;;;4.70;100.00
46836;BME280;32573;51.290;6.926;2023-03-12T10:53:21;99497.94;;;4.72;100.00
46836;BME280;32573;51.290;6.926;2023-03-12T10:55:58;99505.00;;;4.76;100.00
46836;BME280;32573;51.290;6.926;2023-03-12T10:58:33;99494.75;;;4.79;100.00
46836;BME280;32573;51.290;6.926;2023-03-12T11:01:04;99505.25;;;4.82;100.00
46836;BME280;32573;51.290;6.926;2023-03-12T11:03:33;99504.53;;;4.86;100.00
46836;BME280;32573;51.290;6.926;2023-03-12T11:06:02;99503.75;;;4.87;100.00
46836;BME280;32573;51.290;6.926;2023-03-12T11:08:32;99505.59;;;4.91;100.00
46836;BME280;32573;51.290;6.926;2023-03-12T11:11:03;99507.41;;;4.92;100.00
46836;BME280;32573;51.290;6.926;2023-03-12T11:13:35;99502.31;;;4.95;100.00
46836;BME280;32573;51.290;6.926;2023-03-12T11:16:23;99499.91;;;5.00;100.00
46836;BME280;32573;51.290;6.926;2023-03-12T11:18:53;99510.47;;;5.05;100.00
46836;BME280;32573;51.290;6.926;2023-03-12T11:21:22;99501.97;;;5.09;100.00
46836;BME280;32573;51.290;6.926;2023-03-12T11:24:06;99503.88;;;5.13;100.00
46836;BME280;32573;51.290;6.926;2023-03-12T11:26:41;99493.59;;;5.16;100.00
46836;BME280;32573;51.290;6.926;2023-03-12T11:29:17;99497.22;;;5.19;100.00
46836;BME280;32573;51.290;6.926;2023-03-12T11:31:57;99503.47;;;5.25;100.00
46836;BME280;32573;51.290;6.926;2023-03-12T11:34:29;99492.31;;;5.27;100.00
46836;BME280;32573;51.290;6.926;2023-03-12T11:37:05;99482.88;;;5.29;100.00
46836;BME280;32573;51.290;6.926;2023-03-12T11:39:45;99489.94;;;5.33;100.00
46836;BME280;32573;51.290;6.926;2023-03-12T11:42:27;99497.97;;;5.39;100.00
46836;BME280;32573;51.290;6.926;2023-03-12T11:45:05;99493.00;;;5.46;100.00
46836;BME280;32573;51.290;6.926;2023-03-12T11:47:52;99498.44;;;5.52;100.00
46836;BME280;32573;51.290;6.926;2023-03-12T11:50:36;99490.84;;;5.58;100.00
46836;BME280;32573;51.290;6.926;2023-03-12T11:53:20;99485.88;;;5.64;100.00
46836;BME280;32573;51.290;6.926;2023-03-12T11:56:02;99495.63;;;5.70;100.00
46836;BME280;32573;51.290;6.926;2023-03-12T11:58:48;99490.63;;;5.76;100.00
46836;BME280;32573;51.290;6.926;2023-03-12T12:01:28;99494.28;;;5.81;100.00
46836;BME280;32573;51.290;6.926;2023-03-12T12:04:12;99493.50;;;5.83;100.00
46836;BME280;32573;51.290;6.926;2023-03-12T12:06:50;99495.38;;;5.88;100.00
46836;BME280;32573;51.290;6.926;2023-03-12T12:09:33;99493.84;;;5.93;100.00
46836;BME280;32573;51.290;6.926;2023-03-12T12:12:15;99488.84;;;5.97;100.00
46836;BME280;32573;51.290;6.926;2023-03-12T12:14:58;99486.41;;;6.02;100.00
46836;BME280;32573;51.290;6.926;2023-03-12T12:17:43;99480.47;;;6.06;100.00
46836;BME280;32573;51.290;6.926;2023-03-12T12:20:20;99491.91;;;6.11;100.00
46836;BME280;32573;51.290;6.926;2023-03-12T12:23:02;99483.38;;;6.15;100.00
46836;BME280;32573;51.290;6.926;2023-03-12T12:25:51;99489.63;;;6.20;100.00
46836;BME280;32573;51.290;6.926;2023-03-12T12:28:53;99479.41;;;6.25;100.00
46836;BME280;32573;51.290;6.926;2023-03-12T12:31:31;99489.94;;;6.30;100.00
46836;BME280;32573;51.290;6.926;2023-03-12T12:37:22;99485.03;;;6.39;100.00
46836;BME280;32573;51.290;6.926;2023-03-12T12:39:59;99481.72;;;6.43;100.00
46836;BME280;32573;51.290;6.926;2023-03-12T12:42:46;99473.19;;;6.47;100.00
46836;BME280;32573;51.290;6.926;2023-03-12T12:45:17;99471.63;;;6.52;100.00
46836;BME280;32573;51.290;6.926;2023-03-12T12:47:50;99466.63;;;6.58;100.00
46836;BME280;32573;51.290;6.926;2023-03-12T12:50:21;99451.22;;;6.64;100.00
46836;BME280;32573;51.290;6.926;2023-03-12T12:52:57;99461.03;;;6.73;100.00
46836;BME280;32573;51.290;6.926;2023-03-12T12:55:30;99464.75;;;6.81;100.00
46836;BME280;32573;51.290;6.926;2023-03-12T12:58:03;99453.75;;;6.90;100.00
46836;BME280;32573;51.290;6.926;2023-03-12T13:00:44;99453.25;;;7.02;100.00
46836;BME280;32573;51.290;6.926;2023-03-12T13:03:18;99430.16;;;7.12;100.00
46836;BME280;32573;51.290;6.926;2023-03-12T13:05:56;99435.72;;;7.25;100.00
46836;BME280;32573;51.290;6.926;2023-03-12T13:08:58;99420.53;;;7.40;100.00
46836;BME280;32573;51.290;6.926;2023-03-12T13:11:29;99427.03;;;7.54;100.00
46836;BME280;32573;51.290;6.926;2023-03-12T13:14:20;99430.84;;;7.67;100.00
46836;BME280;32573;51.290;6.926;2023-03-12T13:16:49;99435.50;;;7.79;100.00
46836;BME280;32573;51.290;6.926;2023-03-12T13:19:37;99438.44;;;7.91;100.00
46836;BME280;32573;51.290;6.926;2023-03-12T13:22:15;99420.44;;;8.00;100.00
46836;BME280;32573;51.290;6.926;2023-03-12T13:24:53;99423.34;;;8.11;100.00
46836;BME280;32573;51.290;6.926;2023-03-12T13:27:29;99411.38;;;8.19;100.00
46836;BME280;32573;51.290;6.926;2023-03-12T13:29:58;99399.34;;;8.26;100.00
46836;BME280;32573;51.290;6.926;2023-03-12T13:33:05;99399.56;;;8.34;100.00
46836;BME280;32573;51.290;6.926;2023-03-12T13:35:38;99391.81;;;8.38;100.00